sensor_id;sensor_type;location;lat;lon;timestamp;temperature;humidity
74178;DHT22;62540;48.456;-4.456;2023-04-03T00:00:22;11.74;68.19
74178;DHT22;62540;48.456;-4.456;2023-04-03T00:02:48;11.74;68.46
74178;DHT22;62540;48.456;-4.456;2023-04-03T00:05:13;11.73;68.61
74178;DHT22;62540;48.456;-4.456;2023-04-03T00:07:39;11.74;68.60
74178;DHT22;62540;48.456;-4.456;2023-04-03T00:10:04;11.74;68.58
74178;DHT22;62540;48.456;-4.456;2023-04-03T00:12:30;11.73;68.71
74178;DHT22;62540;48.456;-4.456;2023-04-03T00:14:55;11.79;68.53
74178;DHT22;62540;48.456;-4.456;2023-04-03T00:17:21;11.80;68.58
74178;DHT22;62540;48.456;-4.456;2023-04-03T00:19:46;11.83;68.49
74178;DHT22;62540;48.456;-4.456;2023-04-03T00:22:12;11.82;68.37
74178;DHT22;62540;48.456;-4.456;2023-04-03T00:24:37;11.83;68.31
74178;DHT22;62540;48.456;-4.456;2023-04-03T00:27:02;11.84;68.37
74178;DHT22;62540;48.456;-4.456;2023-04-03T00:29:28;11.89;68.33
74178;DHT22;62540;48.456;-4.456;2023-04-03T00:31:53;11.86;68.30
74178;DHT22;62540;48.456;-4.456;2023-04-03T00:34:19;11.86;68.03
74178;DHT22;62540;48.456;-4.456;2023-04-03T00:36:44;11.84;68.32
74178;DHT22;62540;48.456;-4.456;2023-04-03T00:39:10;11.87;68.28
74178;DHT22;62540;48.456;-4.456;2023-04-03T00:41:36;11.87;68.29
74178;DHT22;62540;48.456;-4.456;2023-04-03T00:46:58;11.90;68.16
74178;DHT22;62540;48.456;-4.456;2023-04-03T00:49:23;11.86;68.02
74178;DHT22;62540;48.456;-4.456;2023-04-03T00:51:49;11.86;68.10
74178;DHT22;62540;48.456;-4.456;2023-04-03T00:54:14;11.82;68.07
74178;DHT22;62540;48.456;-4.456;2023-04-03T00:56:41;11.77;68.26
74178;DHT22;62540;48.456;-4.456;2023-04-03T00:59:20;11.76;68.02
74178;DHT22;62540;48.456;-4.456;2023-04-03T01:01:48;11.69;67.87
74178;DHT22;62540;48.456;-4.456;2023-04-03T01:04:32;11.63;67.91
74178;DHT22;62540;48.456;-4.456;2023-04-03T01:07:02;11.61;67.97
74178;DHT22;62540;48.456;-4.456;2023-04-03T01:09:29;11.59;68.15
74178;DHT22;62540;48.456;-4.456;2023-04-03T01:12:13;11.61;68.13
74178;DHT22;62540;48.456;-4.456;2023-04-03T01:14:38;11.63;68.02
74178;DHT22;62540;48.456;-4.456;2023-04-03T01:17:20;11.61;67.95
74178;DHT22;62540;48.456;-4.456;2023-04-03T01:19:53;11.58;67.74
74178;DHT22;62540;48.456;-4.456;2023-04-03T01:22:30;11.58;67.60
74178;DHT22;62540;48.456;-4.456;2023-04-03T01:25:01;11.52;67.56
74178;DHT22;62540;48.456;-4.456;2023-04-03T01:27:26;11.47;67.60
74178;DHT22;62540;48.456;-4.456;2023-04-03T01:29:52;11.46;67.55
74178;DHT22;62540;48.456;-4.456;2023-04-03T01:32:18;11.47;67.55
74178;DHT22;62540;48.456;-4.456;2023-04-03T01:34:43;11.49;67.32
74178;DHT22;62540;48.456;-4.456;2023-04-03T01:37:09;11.47;67.25
74178;DHT22;62540;48.456;-4.456;2023-04-03T01:39:34;11.49;67.18
74178;DHT22;62540;48.456;-4.456;2023-04-03T01:42:00;11.45;66.97
74178;DHT22;62540;48.456;-4.456;2023-04-03T01:44:25;11.45;67.08
74178;DHT22;62540;48.456;-4.456;2023-04-03T01:46:51;11.43;67.04
74178;DHT22;62540;48.456;-4.456;2023-04-03T01:49:16;11.42;66.94
74178;DHT22;62540;48.456;-4.456;2023-04-03T01:51:41;11.38;66.85
74178;DHT22;62540;48.456;-4.456;2023-04-03T01:54:07;11.31;66.80
74178;DHT22;62540;48.456;-4.456;2023-04-03T01:56:32;11.28;66.86
74178;DHT22;62540;48.456;-4.456;2023-04-03T01:58:58;11.25;66.76
74178;DHT22;62540;48.456;-4.456;2023-04-03T02:01:23;11.15;66.85
74178;DHT22;62540;48.456;-4.456;2023-04-03T02:03:48;11.14;66.76
74178;DHT22;62540;48.456;-4.456;2023-04-03T02:06:14;11.12;66.82
74178;DHT22;62540;48.456;-4.456;2023-04-03T02:08:40;11.10;66.74
74178;DHT22;62540;48.456;-4.456;2023-04-03T02:11:06;11.10;66.67
74178;DHT22;62540;48.456;-4.456;2023-04-03T02:13:32;11.05;66.72
74178;DHT22;62540;48.456;-4.456;2023-04-03T02:15:57;11.00;66.67
74178;DHT22;62540;48.456;-4.456;2023-04-03T02:18:24;10.98;66.76
74178;DHT22;62540;48.456;-4.456;2023-04-03T02:20:49;10.88;66.91
74178;DHT22;62540;48.456;-4.456;2023-04-03T02:23:14;10.81;67.23
74178;DHT22;62540;48.456;-4.456;2023-04-03T02:25:40;10.76;67.33
74178;DHT22;62540;48.456;-4.456;2023-04-03T02:28:06;10.67;67.57
74178;DHT22;62540;48.456;-4.456;2023-04-03T02:30:31;10.61;67.68
74178;DHT22;62540;48.456;-4.456;2023-04-03T02:32:56;10.55;67.93
74178;DHT22;62540;48.456;-4.456;2023-04-03T02:35:22;10.49;67.93
74178;DHT22;62540;48.456;-4.456;2023-04-03T02:37:47;10.46;68.01
74178;DHT22;62540;48.456;-4.456;2023-04-03T02:40:13;10.42;68.15
74178;DHT22;62540;48.456;-4.456;2023-04-03T02:42:38;10.42;68.18
74178;DHT22;62540;48.456;-4.456;2023-04-03T02:45:04;10.37;67.97
74178;DHT22;62540;48.456;-4.456;2023-04-03T02:47:30;10.33;67.90
74178;DHT22;62540;48.456;-4.456;2023-04-03T02:49:55;10.29;68.02
74178;DHT22;62540;48.456;-4.456;2023-04-03T02:52:21;10.26;67.95
74178;DHT22;62540;48.456;-4.456;2023-04-03T02:54:46;10.23;68.09
74178;DHT22;62540;48.456;-4.456;2023-04-03T02:57:14;10.23;68.22
74178;DHT22;62540;48.456;-4.456;2023-04-03T02:59:40;10.25;68.06
74178;DHT22;62540;48.456;-4.456;2023-04-03T03:02:07;10.22;68.09
74178;DHT22;62540;48.456;-4.456;2023-04-03T03:04:33;10.22;68.08
74178;DHT22;62540;48.456;-4.456;2023-04-03T03:06:58;10.18;68.13
74178;DHT22;62540;48.456;-4.456;2023-04-03T03:09:23;10.15;68.15
74178;DHT22;62540;48.456;-4.456;2023-04-03T03:11:50;10.15;68.43
74178;DHT22;62540;48.456;-4.456;2023-04-03T03:14:15;10.18;68.38
74178;DHT22;62540;48.456;-4.456;2023-04-03T03:16:41;10.19;68.20
74178;DHT22;62540;48.456;-4.456;2023-04-03T03:19:06;10.15;68.27
74178;DHT22;62540;48.456;-4.456;2023-04-03T03:21:32;10.10;68.26
74178;DHT22;62540;48.456;-4.456;2023-04-03T03:23:57;10.09;68.41
74178;DHT22;62540;48.456;-4.456;2023-04-03T03:26:23;10.06;68.13
74178;DHT22;62540;48.456;-4.456;2023-04-03T03:28:48;10.05;68.11
74178;DHT22;62540;48.456;-4.456;2023-04-03T03:31:14;10.02;68.10
74178;DHT22;62540;48.456;-4.456;2023-04-03T03:33:40;10.03;67.98
74178;DHT22;62540;48.456;-4.456;2023-04-03T03:36:06;10.02;68.02
74178;DHT22;62540;48.456;-4.456;2023-04-03T03:38:31;10.03;68.08
74178;DHT22;62540;48.456;-4.456;2023-04-03T03:40:57;10.02;68.24
74178;DHT22;62540;48.456;-4.456;2023-04-03T03:43:22;10.01;68.15
74178;DHT22;62540;48.456;-4.456;2023-04-03T03:45:52;9.94;67.74
74178;DHT22;62540;48.456;-4.456;2023-04-03T03:48:18;9.85;68.20
74178;DHT22;62540;48.456;-4.456;2023-04-03T03:50:44;9.77;68.57
74178;DHT22;62540;48.456;-4.456;2023-04-03T03:53:09;9.78;68.50
74178;DHT22;62540;48.456;-4.456;2023-04-03T03:55:34;9.79;68.31
74178;DHT22;62540;48.456;-4.456;2023-04-03T03:58:00;9.82;67.82
74178;DHT22;62540;48.456;-4.456;2023-04-03T04:00:27;9.81;67.89
74178;DHT22;62540;48.456;-4.456;2023-04-03T04:02:52;9.77;67.61
74178;DHT22;62540;48.456;-4.456;2023-04-03T04:05:18;9.77;68.07
74178;DHT22;62540;48.456;-4.456;2023-04-03T04:07:43;9.78;67.69
74178;DHT22;62540;48.456;-4.456;2023-04-03T04:10:09;9.78;67.44
74178;DHT22;62540;48.456;-4.456;2023-04-03T04:12:34;9.75;67.60
74178;DHT22;62540;48.456;-4.456;2023-04-03T04:15:01;9.74;67.66
74178;DHT22;62540;48.456;-4.456;2023-04-03T04:17:26;9.75;67.86
74178;DHT22;62540;48.456;-4.456;2023-04-03T04:19:51;9.78;68.01
74178;DHT22;62540;48.456;-4.456;2023-04-03T04:22:17;9.77;68.05
74178;DHT22;62540;48.456;-4.456;2023-04-03T04:24:42;9.81;67.87
74178;DHT22;62540;48.456;-4.456;2023-04-03T04:27:08;9.88;67.47
74178;DHT22;62540;48.456;-4.456;2023-04-03T04:29:33;9.82;67.66
74178;DHT22;62540;48.456;-4.456;2023-04-03T04:32:02;9.84;67.89
74178;DHT22;62540;48.456;-4.456;2023-04-03T04:34:27;9.88;67.82
74178;DHT22;62540;48.456;-4.456;2023-04-03T04:36:53;9.85;68.04
74178;DHT22;62540;48.456;-4.456;2023-04-03T04:39:18;9.87;68.09
74178;DHT22;62540;48.456;-4.456;2023-04-03T04:41:44;9.84;67.94
74178;DHT22;62540;48.456;-4.456;2023-04-03T04:44:09;9.81;67.80
74178;DHT22;62540;48.456;-4.456;2023-04-03T04:46:35;9.85;67.91
74178;DHT22;62540;48.456;-4.456;2023-04-03T04:49:00;9.89;68.06
74178;DHT22;62540;48.456;-4.456;2023-04-03T04:51:25;9.92;68.05
74178;DHT22;62540;48.456;-4.456;2023-04-03T04:53:51;9.97;68.08
74178;DHT22;62540;48.456;-4.456;2023-04-03T04:56:16;9.97;68.12
74178;DHT22;62540;48.456;-4.456;2023-04-03T04:58:42;10.01;68.17
74178;DHT22;62540;48.456;-4.456;2023-04-03T05:01:09;10.03;68.06
74178;DHT22;62540;48.456;-4.456;2023-04-03T05:03:35;10.03;68.05
74178;DHT22;62540;48.456;-4.456;2023-04-03T05:06:01;10.03;68.16
74178;DHT22;62540;48.456;-4.456;2023-04-03T05:08:27;10.02;68.08
74178;DHT22;62540;48.456;-4.456;2023-04-03T05:10:52;10.03;68.04
74178;DHT22;62540;48.456;-4.456;2023-04-03T05:13:19;9.95;68.04
74178;DHT22;62540;48.456;-4.456;2023-04-03T05:15:45;9.88;68.14
74178;DHT22;62540;48.456;-4.456;2023-04-03T05:18:10;9.87;67.90
74178;DHT22;62540;48.456;-4.456;2023-04-03T05:20:36;9.81;67.91
74178;DHT22;62540;48.456;-4.456;2023-04-03T05:23:02;9.82;67.81
74178;DHT22;62540;48.456;-4.456;2023-04-03T05:25:28;9.77;67.67
74178;DHT22;62540;48.456;-4.456;2023-04-03T05:27:53;9.75;67.77
74178;DHT22;62540;48.456;-4.456;2023-04-03T05:30:19;9.77;67.64
74178;DHT22;62540;48.456;-4.456;2023-04-03T05:32:44;9.81;67.55
74178;DHT22;62540;48.456;-4.456;2023-04-03T05:35:11;9.78;67.54
74178;DHT22;62540;48.456;-4.456;2023-04-03T05:37:36;9.78;67.53
74178;DHT22;62540;48.456;-4.456;2023-04-03T05:40:03;9.81;67.40
74178;DHT22;62540;48.456;-4.456;2023-04-03T05:42:29;9.87;67.27
74178;DHT22;62540;48.456;-4.456;2023-04-03T05:44:55;9.88;67.06
74178;DHT22;62540;48.456;-4.456;2023-04-03T05:47:20;9.88;67.11
74178;DHT22;62540;48.456;-4.456;2023-04-03T05:49:46;9.91;66.84
74178;DHT22;62540;48.456;-4.456;2023-04-03T05:52:26;9.89;66.85
74178;DHT22;62540;48.456;-4.456;2023-04-03T05:54:53;9.92;66.86
74178;DHT22;62540;48.456;-4.456;2023-04-03T05:57:18;9.94;66.64
74178;DHT22;62540;48.456;-4.456;2023-04-03T05:59:45;9.94;66.56
74178;DHT22;62540;48.456;-4.456;2023-04-03T06:02:17;9.94;66.36
74178;DHT22;62540;48.456;-4.456;2023-04-03T06:04:43;9.92;66.36
74178;DHT22;62540;48.456;-4.456;2023-04-03T06:07:13;9.92;66.28
74178;DHT22;62540;48.456;-4.456;2023-04-03T06:09:39;9.91;66.25
74178;DHT22;62540;48.456;-4.456;2023-04-03T06:12:05;9.94;66.32
74178;DHT22;62540;48.456;-4.456;2023-04-03T06:14:30;9.92;66.19
74178;DHT22;62540;48.456;-4.456;2023-04-03T06:16:56;9.91;66.25
74178;DHT22;62540;48.456;-4.456;2023-04-03T06:19:22;9.91;66.18
74178;DHT22;62540;48.456;-4.456;2023-04-03T06:21:47;9.97;66.20
74178;DHT22;62540;48.456;-4.456;2023-04-03T06:24:19;9.98;65.93
74178;DHT22;62540;48.456;-4.456;2023-04-03T06:26:47;10.02;66.02
74178;DHT22;62540;48.456;-4.456;2023-04-03T06:29:12;10.03;66.03
74178;DHT22;62540;48.456;-4.456;2023-04-03T06:31:38;10.10;66.14
74178;DHT22;62540;48.456;-4.456;2023-04-03T06:34:04;10.13;66.02
74178;DHT22;62540;48.456;-4.456;2023-04-03T06:36:29;10.23;66.01
74178;DHT22;62540;48.456;-4.456;2023-04-03T06:38:55;10.26;65.81
74178;DHT22;62540;48.456;-4.456;2023-04-03T06:41:20;10.22;65.77
74178;DHT22;62540;48.456;-4.456;2023-04-03T06:43:47;10.22;65.82
74178;DHT22;62540;48.456;-4.456;2023-04-03T06:46:20;10.12;65.88
74178;DHT22;62540;48.456;-4.456;2023-04-03T06:48:46;10.05;65.93
74178;DHT22;62540;48.456;-4.456;2023-04-03T06:51:23;10.02;66.10
74178;DHT22;62540;48.456;-4.456;2023-04-03T06:53:50;10.05;66.14
74178;DHT22;62540;48.456;-4.456;2023-04-03T06:56:16;10.18;65.88
74178;DHT22;62540;48.456;-4.456;2023-04-03T06:58:43;10.28;65.57
74178;DHT22;62540;48.456;-4.456;2023-04-03T07:01:14;10.30;65.17
74178;DHT22;62540;48.456;-4.456;2023-04-03T07:03:40;10.33;64.72
74178;DHT22;62540;48.456;-4.456;2023-04-03T07:06:07;10.50;63.81
74178;DHT22;62540;48.456;-4.456;2023-04-03T07:08:35;10.78;63.74
74178;DHT22;62540;48.456;-4.456;2023-04-03T07:11:01;11.16;62.66
74178;DHT22;62540;48.456;-4.456;2023-04-03T07:13:27;11.52;62.01
74178;DHT22;62540;48.456;-4.456;2023-04-03T07:15:52;11.90;61.69
74178;DHT22;62540;48.456;-4.456;2023-04-03T07:18:18;12.32;61.16
74178;DHT22;62540;48.456;-4.456;2023-04-03T07:20:43;12.66;59.41
74178;DHT22;62540;48.456;-4.456;2023-04-03T07:23:09;12.88;59.19
74178;DHT22;62540;48.456;-4.456;2023-04-03T07:25:35;13.10;58.38
74178;DHT22;62540;48.456;-4.456;2023-04-03T07:28:01;13.30;58.05
74178;DHT22;62540;48.456;-4.456;2023-04-03T07:30:27;13.58;56.49
74178;DHT22;62540;48.456;-4.456;2023-04-03T07:32:52;13.95;55.70
74178;DHT22;62540;48.456;-4.456;2023-04-03T07:35:18;14.09;55.58
74178;DHT22;62540;48.456;-4.456;2023-04-03T07:37:44;14.25;55.87
74178;DHT22;62540;48.456;-4.456;2023-04-03T07:40:11;14.48;54.72
74178;DHT22;62540;48.456;-4.456;2023-04-03T07:42:36;14.73;53.96
74178;DHT22;62540;48.456;-4.456;2023-04-03T07:45:03;14.91;52.80
74178;DHT22;62540;48.456;-4.456;2023-04-03T07:47:29;15.18;53.48
74178;DHT22;62540;48.456;-4.456;2023-04-03T07:49:56;15.12;49.04
74178;DHT22;62540;48.456;-4.456;2023-04-03T07:52:22;15.15;50.83
74178;DHT22;62540;48.456;-4.456;2023-04-03T07:54:48;15.12;51.23
74178;DHT22;62540;48.456;-4.456;2023-04-03T07:57:13;15.31;51.68
74178;DHT22;62540;48.456;-4.456;2023-04-03T07:59:41;15.49;49.64
74178;DHT22;62540;48.456;-4.456;2023-04-03T08:02:11;15.76;50.85
74178;DHT22;62540;48.456;-4.456;2023-04-03T08:04:36;15.98;49.43
74178;DHT22;62540;48.456;-4.456;2023-04-03T08:07:02;16.08;48.35
74178;DHT22;62540;48.456;-4.456;2023-04-03T08:09:27;16.11;47.08
74178;DHT22;62540;48.456;-4.456;2023-04-03T08:11:53;16.12;49.35
74178;DHT22;62540;48.456;-4.456;2023-04-03T08:14:19;16.15;46.91
74178;DHT22;62540;48.456;-4.456;2023-04-03T08:16:45;15.80;47.06
74178;DHT22;62540;48.456;-4.456;2023-04-03T08:19:11;15.49;49.12
74178;DHT22;62540;48.456;-4.456;2023-04-03T08:21:39;15.71;48.95
74178;DHT22;62540;48.456;-4.456;2023-04-03T08:24:07;15.59;47.84
74178;DHT22;62540;48.456;-4.456;2023-04-03T08:26:32;15.79;49.11
74178;DHT22;62540;48.456;-4.456;2023-04-03T08:28:57;15.89;46.81
74178;DHT22;62540;48.456;-4.456;2023-04-03T08:31:23;15.91;46.09
74178;DHT22;62540;48.456;-4.456;2023-04-03T08:33:49;16.15;48.09
74178;DHT22;62540;48.456;-4.456;2023-04-03T08:36:26;16.38;47.81
74178;DHT22;62540;48.456;-4.456;2023-04-03T08:38:52;16.10;47.76
74178;DHT22;62540;48.456;-4.456;2023-04-03T08:49:32;16.25;46.45
74178;DHT22;62540;48.456;-4.456;2023-04-03T08:52:03;16.42;47.04
74178;DHT22;62540;48.456;-4.456;2023-04-03T08:54:36;16.65;46.89
74178;DHT22;62540;48.456;-4.456;2023-04-03T08:57:04;16.80;46.50
74178;DHT22;62540;48.456;-4.456;2023-04-03T08:59:34;16.87;44.21
74178;DHT22;62540;48.456;-4.456;2023-04-03T09:02:21;16.76;44.02
74178;DHT22;62540;48.456;-4.456;2023-04-03T09:04:48;16.86;45.40
74178;DHT22;62540;48.456;-4.456;2023-04-03T09:07:19;17.11;44.93
74178;DHT22;62540;48.456;-4.456;2023-04-03T09:09:47;17.31;45.54
74178;DHT22;62540;48.456;-4.456;2023-04-03T09:12:27;17.61;45.26
74178;DHT22;62540;48.456;-4.456;2023-04-03T09:15:20;17.77;43.38
74178;DHT22;62540;48.456;-4.456;2023-04-03T09:23:48;17.88;43.04
74178;DHT22;62540;48.456;-4.456;2023-04-03T09:29:22;17.77;44.01
74178;DHT22;62540;48.456;-4.456;2023-04-03T09:31:54;17.79;43.47
74178;DHT22;62540;48.456;-4.456;2023-04-03T09:34:27;17.96;44.39
74178;DHT22;62540;48.456;-4.456;2023-04-03T09:36:55;18.10;42.96
74178;DHT22;62540;48.456;-4.456;2023-04-03T09:39:28;17.99;42.79
74178;DHT22;62540;48.456;-4.456;2023-04-03T09:42:05;18.02;43.83
74178;DHT22;62540;48.456;-4.456;2023-04-03T09:44:36;18.10;43.73
74178;DHT22;62540;48.456;-4.456;2023-04-03T09:47:28;18.06;43.26
74178;DHT22;62540;48.456;-4.456;2023-04-03T09:52:39;17.82;43.06
74178;DHT22;62540;48.456;-4.456;2023-04-03T09:55:07;17.93;43.40
74178;DHT22;62540;48.456;-4.456;2023-04-03T09:57:33;17.85;42.66
74178;DHT22;62540;48.456;-4.456;2023-04-03T10:00:00;17.89;43.28
74178;DHT22;62540;48.456;-4.456;2023-04-03T10:02:36;17.96;42.60
74178;DHT22;62540;48.456;-4.456;2023-04-03T10:05:05;17.86;42.26
74178;DHT22;62540;48.456;-4.456;2023-04-03T10:07:49;17.78;42.83
74178;DHT22;62540;48.456;-4.456;2023-04-03T10:10:21;17.92;42.77
74178;DHT22;62540;48.456;-4.456;2023-04-03T10:13:12;18.00;42.29
74178;DHT22;62540;48.456;-4.456;2023-04-03T10:15:45;18.07;42.72
74178;DHT22;62540;48.456;-4.456;2023-04-03T10:18:40;18.10;42.51
74178;DHT22;62540;48.456;-4.456;2023-04-03T10:24:02;18.22;41.78
74178;DHT22;62540;48.456;-4.456;2023-04-03T10:34:40;18.44;41.96
74178;DHT22;62540;48.456;-4.456;2023-04-03T10:37:27;18.54;41.11
74178;DHT22;62540;48.456;-4.456;2023-04-03T10:42:46;18.53;42.31
74178;DHT22;62540;48.456;-4.456;2023-04-03T10:45:19;18.87;41.92
74178;DHT22;62540;48.456;-4.456;2023-04-03T10:48:07;19.11;41.94
74178;DHT22;62540;48.456;-4.456;2023-04-03T10:56:03;19.33;40.40
74178;DHT22;62540;48.456;-4.456;2023-04-03T10:58:43;19.32;39.37
74178;DHT22;62540;48.456;-4.456;2023-04-03T11:01:14;19.19;39.41
74178;DHT22;62540;48.456;-4.456;2023-04-03T11:03:49;18.95;39.78
74178;DHT22;62540;48.456;-4.456;2023-04-03T11:06:18;18.94;40.93
74178;DHT22;62540;48.456;-4.456;2023-04-03T11:08:55;19.06;40.37
74178;DHT22;62540;48.456;-4.456;2023-04-03T11:11:26;19.11;39.97
74178;DHT22;62540;48.456;-4.456;2023-04-03T11:22:27;19.37;40.31
74178;DHT22;62540;48.456;-4.456;2023-04-03T11:24:59;19.50;40.39
74178;DHT22;62540;48.456;-4.456;2023-04-03T11:27:33;19.59;39.30
74178;DHT22;62540;48.456;-4.456;2023-04-03T11:30:01;19.73;40.68
74178;DHT22;62540;48.456;-4.456;2023-04-03T11:32:30;20.00;40.75
74178;DHT22;62540;48.456;-4.456;2023-04-03T11:34:59;20.29;40.67
74178;DHT22;62540;48.456;-4.456;2023-04-03T11:37:36;20.32;38.11
74178;DHT22;62540;48.456;-4.456;2023-04-03T11:42:40;20.46;39.46
74178;DHT22;62540;48.456;-4.456;2023-04-03T11:47:57;20.68;38.56
74178;DHT22;62540;48.456;-4.456;2023-04-03T12:08:29;20.12;38.26
74178;DHT22;62540;48.456;-4.456;2023-04-03T12:13:39;20.18;39.12
74178;DHT22;62540;48.456;-4.456;2023-04-03T12:16:07;20.05;38.83
74178;DHT22;62540;48.456;-4.456;2023-04-03T12:27:00;20.04;40.91
74178;DHT22;62540;48.456;-4.456;2023-04-03T12:40:52;20.51;38.66
74178;DHT22;62540;48.456;-4.456;2023-04-03T12:48:38;20.36;38.65
74178;DHT22;62540;48.456;-4.456;2023-04-03T12:51:04;20.33;38.64
74178;DHT22;62540;48.456;-4.456;2023-04-03T12:53:35;20.31;38.84
74178;DHT22;62540;48.456;-4.456;2023-04-03T12:56:25;20.21;38.68
74178;DHT22;62540;48.456;-4.456;2023-04-03T12:58:53;20.21;38.79
74178;DHT22;62540;48.456;-4.456;2023-04-03T13:01:25;20.08;38.99
74178;DHT22;62540;48.456;-4.456;2023-04-03T13:03:56;20.05;39.68
74178;DHT22;62540;48.456;-4.456;2023-04-03T13:06:28;19.97;39.98
74178;DHT22;62540;48.456;-4.456;2023-04-03T13:08:58;20.12;39.64
74178;DHT22;62540;48.456;-4.456;2023-04-03T13:11:30;20.05;38.77
74178;DHT22;62540;48.456;-4.456;2023-04-03T13:13:57;20.00;39.36
74178;DHT22;62540;48.456;-4.456;2023-04-03T13:16:22;20.04;40.10
74178;DHT22;62540;48.456;-4.456;2023-04-03T13:18:52;20.05;38.93
74178;DHT22;62540;48.456;-4.456;2023-04-03T13:21:27;20.14;39.48
74178;DHT22;62540;48.456;-4.456;2023-04-03T13:23:59;19.98;39.87
74178;DHT22;62540;48.456;-4.456;2023-04-03T13:26:31;19.97;39.30
74178;DHT22;62540;48.456;-4.456;2023-04-03T13:29:05;19.94;39.08
74178;DHT22;62540;48.456;-4.456;2023-04-03T13:31:37;19.85;39.72
74178;DHT22;62540;48.456;-4.456;2023-04-03T13:34:09;19.95;40.92
74178;DHT22;62540;48.456;-4.456;2023-04-03T13:36:39;19.98;36.59
74178;DHT22;62540;48.456;-4.456;2023-04-03T13:41:43;20.08;39.19
74178;DHT22;62540;48.456;-4.456;2023-04-03T13:46:47;20.02;39.30
74178;DHT22;62540;48.456;-4.456;2023-04-03T13:49:30;19.93;40.29
74178;DHT22;62540;48.456;-4.456;2023-04-03T13:51:57;19.75;40.57
74178;DHT22;62540;48.456;-4.456;2023-04-03T13:54:33;19.70;40.68
74178;DHT22;62540;48.456;-4.456;2023-04-03T13:57:00;19.56;40.99
74178;DHT22;62540;48.456;-4.456;2023-04-03T13:59:34;19.43;42.18
74178;DHT22;62540;48.456;-4.456;2023-04-03T14:07:02;19.50;42.17
74178;DHT22;62540;48.456;-4.456;2023-04-03T14:09:27;19.53;40.55
74178;DHT22;62540;48.456;-4.456;2023-04-03T14:11:56;19.43;41.22
74178;DHT22;62540;48.456;-4.456;2023-04-03T14:14:27;19.30;41.31
74178;DHT22;62540;48.456;-4.456;2023-04-03T14:16:55;19.16;40.89
74178;DHT22;62540;48.456;-4.456;2023-04-03T14:19:33;19.04;42.12
74178;DHT22;62540;48.456;-4.456;2023-04-03T14:22:00;18.94;42.83
74178;DHT22;62540;48.456;-4.456;2023-04-03T14:24:28;18.91;42.84
74178;DHT22;62540;48.456;-4.456;2023-04-03T14:26:54;18.81;43.06
74178;DHT22;62540;48.456;-4.456;2023-04-03T14:29:21;18.74;42.55
74178;DHT22;62540;48.456;-4.456;2023-04-03T14:31:47;18.54;42.23
74178;DHT22;62540;48.456;-4.456;2023-04-03T14:34:14;18.54;43.73
74178;DHT22;62540;48.456;-4.456;2023-04-03T14:36:40;18.56;43.59
74178;DHT22;62540;48.456;-4.456;2023-04-03T14:39:10;18.50;43.21
74178;DHT22;62540;48.456;-4.456;2023-04-03T14:41:36;18.48;43.46
74178;DHT22;62540;48.456;-4.456;2023-04-03T14:44:02;18.48;43.47
74178;DHT22;62540;48.456;-4.456;2023-04-03T14:46:31;18.48;43.71
74178;DHT22;62540;48.456;-4.456;2023-04-03T14:48:57;18.40;42.54
74178;DHT22;62540;48.456;-4.456;2023-04-03T14:51:23;18.32;42.94
74178;DHT22;62540;48.456;-4.456;2023-04-03T14:53:50;18.32;43.08
74178;DHT22;62540;48.456;-4.456;2023-04-03T14:56:34;18.26;43.08
74178;DHT22;62540;48.456;-4.456;2023-04-03T14:59:00;18.03;43.12
74178;DHT22;62540;48.456;-4.456;2023-04-03T15:01:27;17.89;42.77
74178;DHT22;62540;48.456;-4.456;2023-04-03T15:03:53;17.81;43.92
74178;DHT22;62540;48.456;-4.456;2023-04-03T15:06:19;17.79;43.04
74178;DHT22;62540;48.456;-4.456;2023-04-03T15:08:46;17.82;43.65
74178;DHT22;62540;48.456;-4.456;2023-04-03T15:11:13;17.83;43.07
74178;DHT22;62540;48.456;-4.456;2023-04-03T15:13:40;17.75;43.17
74178;DHT22;62540;48.456;-4.456;2023-04-03T15:16:14;17.62;44.25
74178;DHT22;62540;48.456;-4.456;2023-04-03T15:18:40;17.55;43.68
74178;DHT22;62540;48.456;-4.456;2023-04-03T15:21:06;17.48;44.56
74178;DHT22;62540;48.456;-4.456;2023-04-03T15:23:31;17.38;43.53
74178;DHT22;62540;48.456;-4.456;2023-04-03T15:25:57;17.40;43.58
74178;DHT22;62540;48.456;-4.456;2023-04-03T15:28:37;17.34;44.03
74178;DHT22;62540;48.456;-4.456;2023-04-03T15:31:03;17.23;44.25
74178;DHT22;62540;48.456;-4.456;2023-04-03T15:33:30;17.21;44.16
74178;DHT22;62540;48.456;-4.456;2023-04-03T15:35:55;17.17;44.21
74178;DHT22;62540;48.456;-4.456;2023-04-03T15:38:20;17.06;45.18
74178;DHT22;62540;48.456;-4.456;2023-04-03T15:40:46;17.03;45.51
74178;DHT22;62540;48.456;-4.456;2023-04-03T15:43:14;17.04;45.10
74178;DHT22;62540;48.456;-4.456;2023-04-03T15:45:40;17.02;46.04
74178;DHT22;62540;48.456;-4.456;2023-04-03T15:48:07;16.96;45.02
74178;DHT22;62540;48.456;-4.456;2023-04-03T15:50:33;16.93;45.01
74178;DHT22;62540;48.456;-4.456;2023-04-03T15:52:59;16.83;44.72
74178;DHT22;62540;48.456;-4.456;2023-04-03T15:55:28;16.80;46.06
74178;DHT22;62540;48.456;-4.456;2023-04-03T15:57:53;16.76;45.90
74178;DHT22;62540;48.456;-4.456;2023-04-03T16:00:21;16.75;46.15
74178;DHT22;62540;48.456;-4.456;2023-04-03T16:02:48;16.70;45.82
74178;DHT22;62540;48.456;-4.456;2023-04-03T16:05:16;16.65;45.94
74178;DHT22;62540;48.456;-4.456;2023-04-03T16:07:43;16.62;46.76
74178;DHT22;62540;48.456;-4.456;2023-04-03T16:10:13;16.56;47.31
74178;DHT22;62540;48.456;-4.456;2023-04-03T16:12:39;16.44;47.04
74178;DHT22;62540;48.456;-4.456;2023-04-03T16:15:05;16.33;47.71
74178;DHT22;62540;48.456;-4.456;2023-04-03T16:17:32;16.33;49.27
74178;DHT22;62540;48.456;-4.456;2023-04-03T16:19:58;16.24;49.43
74178;DHT22;62540;48.456;-4.456;2023-04-03T16:22:26;16.15;48.89
74178;DHT22;62540;48.456;-4.456;2023-04-03T16:24:52;16.12;49.93
74178;DHT22;62540;48.456;-4.456;2023-04-03T16:27:18;16.04;50.30
74178;DHT22;62540;48.456;-4.456;2023-04-03T16:29:43;15.93;51.10
74178;DHT22;62540;48.456;-4.456;2023-04-03T16:32:09;15.90;51.20
74178;DHT22;62540;48.456;-4.456;2023-04-03T16:34:35;15.86;50.85
74178;DHT22;62540;48.456;-4.456;2023-04-03T16:37:00;15.82;51.52
74178;DHT22;62540;48.456;-4.456;2023-04-03T16:39:26;15.77;51.48
74178;DHT22;62540;48.456;-4.456;2023-04-03T16:41:52;15.77;51.41
74178;DHT22;62540;48.456;-4.456;2023-04-03T16:44:17;15.76;51.65
74178;DHT22;62540;48.456;-4.456;2023-04-03T16:46:43;15.71;51.36
74178;DHT22;62540;48.456;-4.456;2023-04-03T16:49:08;15.63;51.02
74178;DHT22;62540;48.456;-4.456;2023-04-03T16:51:34;15.46;51.43
74178;DHT22;62540;48.456;-4.456;2023-04-03T16:53:59;15.39;51.25
74178;DHT22;62540;48.456;-4.456;2023-04-03T16:56:25;15.31;51.98
74178;DHT22;62540;48.456;-4.456;2023-04-03T16:58:53;15.22;51.96
74178;DHT22;62540;48.456;-4.456;2023-04-03T17:01:20;15.19;51.78
74178;DHT22;62540;48.456;-4.456;2023-04-03T17:03:46;15.11;51.87
74178;DHT22;62540;48.456;-4.456;2023-04-03T17:06:15;15.02;52.29
74178;DHT22;62540;48.456;-4.456;2023-04-03T17:08:46;14.95;52.75
74178;DHT22;62540;48.456;-4.456;2023-04-03T17:11:11;14.89;53.17
74178;DHT22;62540;48.456;-4.456;2023-04-03T17:13:37;14.81;54.08